sensor_id;sensor_type;location;lat;lon;timestamp;temperature;humidity
8643;DHT22;4359;49.358;11.256;2023-02-21T00:01:56;0.20;99.90
8643;DHT22;4359;49.358;11.256;2023-02-21T00:04:40;0.30;99.90
8643;DHT22;4359;49.358;11.256;2023-02-21T00:07:24;0.20;99.90
8643;DHT22;4359;49.358;11.256;2023-02-21T00:10:12;0.10;99.90
8643;DHT22;4359;49.358;11.256;2023-02-21T00:12:56;0.10;99.90
8643;DHT22;4359;49.358;11.256;2023-02-21T00:15:41;0.00;99.90
8643;DHT22;4359;49.358;11.256;2023-02-21T00:18:25;-0.10;99.90
8643;DHT22;4359;49.358;11.256;2023-02-21T00:21:10;0.00;99.90
8643;DHT22;4359;49.358;11.256;2023-02-21T00:23:54;0.00;99.90
8643;DHT22;4359;49.358;11.256;2023-02-21T00:26:38;0.10;99.90
8643;DHT22;4359;49.358;11.256;2023-02-21T00:29:22;0.10;99.90
8643;DHT22;4359;49.358;11.256;2023-02-21T00:32:06;0.10;99.90
8643;DHT22;4359;49.358;11.256;2023-02-21T00:34:50;0.20;99.90
8643;DHT22;4359;49.358;11.256;2023-02-21T00:37:35;0.10;99.90
8643;DHT22;4359;49.358;11.256;2023-02-21T00:40:19;0.10;99.90
8643;DHT22;4359;49.358;11.256;2023-02-21T00:43:03;0.10;99.90
8643;DHT22;4359;49.358;11.256;2023-02-21T00:45:47;0.00;99.90
8643;DHT22;4359;49.358;11.256;2023-02-21T00:48:31;0.10;99.90
8643;DHT22;4359;49.358;11.256;2023-02-21T00:51:16;0.10;99.90
8643;DHT22;4359;49.358;11.256;2023-02-21T00:54:00;0.10;99.90
8643;DHT22;4359;49.358;11.256;2023-02-21T00:56:44;0.10;99.90
8643;DHT22;4359;49.358;11.256;2023-02-21T00:59:28;0.10;99.90
8643;DHT22;4359;49.358;11.256;2023-02-21T01:02:13;0.10;99.90
8643;DHT22;4359;49.358;11.256;2023-02-21T01:04:57;0.00;99.90
8643;DHT22;4359;49.358;11.256;2023-02-21T01:07:42;0.00;99.90
8643;DHT22;4359;49.358;11.256;2023-02-21T01:10:26;0.00;99.90
8643;DHT22;4359;49.358;11.256;2023-02-21T01:13:10;-0.10;99.90
8643;DHT22;4359;49.358;11.256;2023-02-21T01:15:54;0.00;99.90
8643;DHT22;4359;49.358;11.256;2023-02-21T01:18:38;-0.10;99.90
8643;DHT22;4359;49.358;11.256;2023-02-21T01:21:23;-0.20;99.90
8643;DHT22;4359;49.358;11.256;2023-02-21T01:24:11;-0.30;99.90
8643;DHT22;4359;49.358;11.256;2023-02-21T01:26:55;-0.40;99.90
8643;DHT22;4359;49.358;11.256;2023-02-21T01:29:39;-0.50;99.90
8643;DHT22;4359;49.358;11.256;2023-02-21T01:32:23;-0.50;99.90
8643;DHT22;4359;49.358;11.256;2023-02-21T01:35:07;-0.60;99.90
8643;DHT22;4359;49.358;11.256;2023-02-21T01:37:51;-0.60;99.90
8643;DHT22;4359;49.358;11.256;2023-02-21T01:40:39;-0.60;99.90
8643;DHT22;4359;49.358;11.256;2023-02-21T01:43:26;-0.70;99.90
8643;DHT22;4359;49.358;11.256;2023-02-21T01:46:16;-0.80;99.90
8643;DHT22;4359;49.358;11.256;2023-02-21T01:49:09;-0.80;99.90
8643;DHT22;4359;49.358;11.256;2023-02-21T01:51:54;-0.90;99.90
8643;DHT22;4359;49.358;11.256;2023-02-21T01:54:45;-0.80;99.90
8643;DHT22;4359;49.358;11.256;2023-02-21T01:57:30;-0.80;99.90
8643;DHT22;4359;49.358;11.256;2023-02-21T02:00:15;-0.70;99.90
8643;DHT22;4359;49.358;11.256;2023-02-21T02:03:06;-0.80;99.90
8643;DHT22;4359;49.358;11.256;2023-02-21T02:05:55;-0.80;99.90
8643;DHT22;4359;49.358;11.256;2023-02-21T02:08:39;-0.80;99.90
8643;DHT22;4359;49.358;11.256;2023-02-21T02:17:43;-0.60;99.90
8643;DHT22;4359;49.358;11.256;2023-02-21T02:25:54;-0.70;99.90
8643;DHT22;4359;49.358;11.256;2023-02-21T02:33:44;-0.80;99.90
8643;DHT22;4359;49.358;11.256;2023-02-21T02:39:29;-0.80;99.90
8643;DHT22;4359;49.358;11.256;2023-02-21T02:42:19;-0.90;99.90
8643;DHT22;4359;49.358;11.256;2023-02-21T02:44:56;-1.00;99.90
8643;DHT22;4359;49.358;11.256;2023-02-21T02:47:30;-1.00;99.90
8643;DHT22;4359;49.358;11.256;2023-02-21T02:49:58;-1.00;99.90
8643;DHT22;4359;49.358;11.256;2023-02-21T02:52:24;-1.00;99.90
8643;DHT22;4359;49.358;11.256;2023-02-21T02:55:00;-1.00;99.90
8643;DHT22;4359;49.358;11.256;2023-02-21T02:57:29;-0.90;99.90
8643;DHT22;4359;49.358;11.256;2023-02-21T03:00:04;-0.90;99.90
8643;DHT22;4359;49.358;11.256;2023-02-21T03:02:51;-0.80;99.90
8643;DHT22;4359;49.358;11.256;2023-02-21T03:05:27;-0.90;99.90
8643;DHT22;4359;49.358;11.256;2023-02-21T03:13:20;-0.90;99.90
8643;DHT22;4359;49.358;11.256;2023-02-21T03:18:38;-0.90;99.90
8643;DHT22;4359;49.358;11.256;2023-02-21T03:21:10;-0.90;99.90
8643;DHT22;4359;49.358;11.256;2023-02-21T03:23:38;-0.90;99.90
8643;DHT22;4359;49.358;11.256;2023-02-21T03:26:07;-1.00;99.90
8643;DHT22;4359;49.358;11.256;2023-02-21T03:28:35;-1.00;99.90
8643;DHT22;4359;49.358;11.256;2023-02-21T03:31:03;-1.00;99.90
8643;DHT22;4359;49.358;11.256;2023-02-21T03:33:30;-1.10;99.90
8643;DHT22;4359;49.358;11.256;2023-02-21T03:35:59;-1.10;99.90
8643;DHT22;4359;49.358;11.256;2023-02-21T03:38:28;-1.10;99.90
8643;DHT22;4359;49.358;11.256;2023-02-21T03:40:53;-1.00;99.90
8643;DHT22;4359;49.358;11.256;2023-02-21T03:43:19;-1.00;99.90
8643;DHT22;4359;49.358;11.256;2023-02-21T03:45:45;-1.10;99.90
8643;DHT22;4359;49.358;11.256;2023-02-21T03:48:10;-1.00;99.90
8643;DHT22;4359;49.358;11.256;2023-02-21T03:50:36;-1.00;99.90
8643;DHT22;4359;49.358;11.256;2023-02-21T03:53:02;-1.00;99.90
8643;DHT22;4359;49.358;11.256;2023-02-21T03:55:27;-1.00;99.90
8643;DHT22;4359;49.358;11.256;2023-02-21T03:57:53;-1.00;99.90
8643;DHT22;4359;49.358;11.256;2023-02-21T04:00:18;-0.90;99.90
8643;DHT22;4359;49.358;11.256;2023-02-21T04:02:44;-0.80;99.90
8643;DHT22;4359;49.358;11.256;2023-02-21T04:05:10;-0.70;99.90
8643;DHT22;4359;49.358;11.256;2023-02-21T04:07:35;-0.60;99.90
8643;DHT22;4359;49.358;11.256;2023-02-21T04:10:01;-0.50;99.90
8643;DHT22;4359;49.358;11.256;2023-02-21T04:12:26;-0.50;99.90
8643;DHT22;4359;49.358;11.256;2023-02-21T04:14:52;-0.30;99.90
8643;DHT22;4359;49.358;11.256;2023-02-21T04:17:21;-0.20;99.90
8643;DHT22;4359;49.358;11.256;2023-02-21T04:19:46;-0.20;99.90
8643;DHT22;4359;49.358;11.256;2023-02-21T04:22:12;-0.10;99.90
8643;DHT22;4359;49.358;11.256;2023-02-21T04:24:37;-0.10;99.90
8643;DHT22;4359;49.358;11.256;2023-02-21T04:27:03;0.00;99.90
8643;DHT22;4359;49.358;11.256;2023-02-21T04:29:29;0.10;99.90
8643;DHT22;4359;49.358;11.256;2023-02-21T04:31:54;0.20;99.90
8643;DHT22;4359;49.358;11.256;2023-02-21T04:34:20;0.30;99.90
8643;DHT22;4359;49.358;11.256;2023-02-21T04:36:46;0.30;99.90
8643;DHT22;4359;49.358;11.256;2023-02-21T04:39:11;0.40;99.90
8643;DHT22;4359;49.358;11.256;2023-02-21T04:41:37;0.50;99.90
8643;DHT22;4359;49.358;11.256;2023-02-21T04:44:03;0.50;99.90
8643;DHT22;4359;49.358;11.256;2023-02-21T04:46:28;0.50;99.90
8643;DHT22;4359;49.358;11.256;2023-02-21T04:48:54;0.50;99.90
8643;DHT22;4359;49.358;11.256;2023-02-21T04:51:22;0.50;99.90
8643;DHT22;4359;49.358;11.256;2023-02-21T04:53:48;0.60;99.90
8643;DHT22;4359;49.358;11.256;2023-02-21T04:56:17;0.70;99.90
8643;DHT22;4359;49.358;11.256;2023-02-21T04:58:43;0.90;99.90
8643;DHT22;4359;49.358;11.256;2023-02-21T05:01:12;0.80;99.90
8643;DHT22;4359;49.358;11.256;2023-02-21T05:03:38;0.90;99.90
8643;DHT22;4359;49.358;11.256;2023-02-21T05:06:04;1.00;99.90
8643;DHT22;4359;49.358;11.256;2023-02-21T05:08:29;1.10;99.90
8643;DHT22;4359;49.358;11.256;2023-02-21T05:10:55;1.20;99.90
8643;DHT22;4359;49.358;11.256;2023-02-21T05:13:21;1.20;99.90
8643;DHT22;4359;49.358;11.256;2023-02-21T05:15:47;1.20;99.90
8643;DHT22;4359;49.358;11.256;2023-02-21T05:18:14;1.20;99.90
8643;DHT22;4359;49.358;11.256;2023-02-21T05:20:50;1.30;99.90
8643;DHT22;4359;49.358;11.256;2023-02-21T05:23:17;1.40;99.90
8643;DHT22;4359;49.358;11.256;2023-02-21T05:25:43;1.40;99.90
8643;DHT22;4359;49.358;11.256;2023-02-21T05:28:09;1.50;99.90
8643;DHT22;4359;49.358;11.256;2023-02-21T05:30:35;1.50;99.90
8643;DHT22;4359;49.358;11.256;2023-02-21T05:33:01;1.50;99.90
8643;DHT22;4359;49.358;11.256;2023-02-21T05:35:26;1.50;99.90
8643;DHT22;4359;49.358;11.256;2023-02-21T05:37:52;1.60;99.90
8643;DHT22;4359;49.358;11.256;2023-02-21T05:40:18;1.50;99.90
8643;DHT22;4359;49.358;11.256;2023-02-21T05:42:43;1.60;99.90
8643;DHT22;4359;49.358;11.256;2023-02-21T05:45:09;1.70;99.90
8643;DHT22;4359;49.358;11.256;2023-02-21T05:47:35;1.60;99.90
8643;DHT22;4359;49.358;11.256;2023-02-21T05:50:01;1.60;99.90
8643;DHT22;4359;49.358;11.256;2023-02-21T05:52:28;1.60;99.90
8643;DHT22;4359;49.358;11.256;2023-02-21T05:54:54;1.70;99.90
8643;DHT22;4359;49.358;11.256;2023-02-21T05:57:19;1.70;99.90
8643;DHT22;4359;49.358;11.256;2023-02-21T05:59:45;1.70;99.90
8643;DHT22;4359;49.358;11.256;2023-02-21T06:02:14;1.80;99.90
8643;DHT22;4359;49.358;11.256;2023-02-21T06:04:40;1.80;99.90
8643;DHT22;4359;49.358;11.256;2023-02-21T06:07:05;1.80;99.90
8643;DHT22;4359;49.358;11.256;2023-02-21T06:09:31;1.80;99.90
8643;DHT22;4359;49.358;11.256;2023-02-21T06:11:57;1.90;99.90
8643;DHT22;4359;49.358;11.256;2023-02-21T06:14:23;1.90;99.90
8643;DHT22;4359;49.358;11.256;2023-02-21T06:16:49;2.00;99.90
8643;DHT22;4359;49.358;11.256;2023-02-21T06:19:15;1.90;99.90
8643;DHT22;4359;49.358;11.256;2023-02-21T06:21:42;2.10;99.90
8643;DHT22;4359;49.358;11.256;2023-02-21T06:24:08;2.10;99.90
8643;DHT22;4359;49.358;11.256;2023-02-21T06:26:34;2.20;99.90
8643;DHT22;4359;49.358;11.256;2023-02-21T06:29:04;2.20;99.90
8643;DHT22;4359;49.358;11.256;2023-02-21T06:31:30;2.30;99.90
8643;DHT22;4359;49.358;11.256;2023-02-21T06:33:56;2.30;99.90
8643;DHT22;4359;49.358;11.256;2023-02-21T06:36:25;2.20;99.90
8643;DHT22;4359;49.358;11.256;2023-02-21T06:38:53;2.20;99.90
8643;DHT22;4359;49.358;11.256;2023-02-21T06:41:23;2.30;99.90
8643;DHT22;4359;49.358;11.256;2023-02-21T06:43:50;2.40;99.90
8643;DHT22;4359;49.358;11.256;2023-02-21T06:46:17;2.50;99.90
8643;DHT22;4359;49.358;11.256;2023-02-21T06:48:43;2.70;99.90
8643;DHT22;4359;49.358;11.256;2023-02-21T06:51:09;2.80;99.90
8643;DHT22;4359;49.358;11.256;2023-02-21T06:53:39;2.90;99.90
8643;DHT22;4359;49.358;11.256;2023-02-21T06:56:05;3.00;99.90
8643;DHT22;4359;49.358;11.256;2023-02-21T06:58:31;3.10;99.90
8643;DHT22;4359;49.358;11.256;2023-02-21T07:00:56;3.20;99.90
8643;DHT22;4359;49.358;11.256;2023-02-21T07:03:22;3.40;99.90
8643;DHT22;4359;49.358;11.256;2023-02-21T07:05:48;3.40;99.90
8643;DHT22;4359;49.358;11.256;2023-02-21T07:08:14;3.50;99.90
8643;DHT22;4359;49.358;11.256;2023-02-21T07:10:39;3.60;99.90
8643;DHT22;4359;49.358;11.256;2023-02-21T07:13:05;3.70;99.90
8643;DHT22;4359;49.358;11.256;2023-02-21T07:15:30;3.70;99.90
8643;DHT22;4359;49.358;11.256;2023-02-21T07:17:56;3.80;99.90
8643;DHT22;4359;49.358;11.256;2023-02-21T07:20:21;4.00;99.90
8643;DHT22;4359;49.358;11.256;2023-02-21T07:22:47;4.10;99.90
8643;DHT22;4359;49.358;11.256;2023-02-21T07:25:14;4.30;99.90
8643;DHT22;4359;49.358;11.256;2023-02-21T07:27:40;4.20;99.90
8643;DHT22;4359;49.358;11.256;2023-02-21T07:30:06;4.40;99.90
8643;DHT22;4359;49.358;11.256;2023-02-21T07:32:32;4.50;99.90
8643;DHT22;4359;49.358;11.256;2023-02-21T07:34:57;4.40;99.90
8643;DHT22;4359;49.358;11.256;2023-02-21T07:37:23;4.50;99.90
8643;DHT22;4359;49.358;11.256;2023-02-21T07:39:52;4.60;99.90
8643;DHT22;4359;49.358;11.256;2023-02-21T07:42:17;4.80;99.90
8643;DHT22;4359;49.358;11.256;2023-02-21T07:44:43;4.90;99.90
8643;DHT22;4359;49.358;11.256;2023-02-21T07:47:09;5.00;99.90
8643;DHT22;4359;49.358;11.256;2023-02-21T07:49:38;5.10;99.90
8643;DHT22;4359;49.358;11.256;2023-02-21T07:52:06;5.30;99.90
8643;DHT22;4359;49.358;11.256;2023-02-21T07:54:32;5.60;99.90
8643;DHT22;4359;49.358;11.256;2023-02-21T07:56:57;5.70;99.90
8643;DHT22;4359;49.358;11.256;2023-02-21T07:59:23;5.90;99.90
8643;DHT22;4359;49.358;11.256;2023-02-21T08:01:49;5.90;99.90
8643;DHT22;4359;49.358;11.256;2023-02-21T08:04:15;6.10;99.90
8643;DHT22;4359;49.358;11.256;2023-02-21T08:06:46;6.00;99.90
8643;DHT22;4359;49.358;11.256;2023-02-21T08:09:12;6.10;99.90
8643;DHT22;4359;49.358;11.256;2023-02-21T08:11:38;6.10;99.90
8643;DHT22;4359;49.358;11.256;2023-02-21T08:14:05;6.30;99.90
8643;DHT22;4359;49.358;11.256;2023-02-21T08:16:31;6.50;99.90
8643;DHT22;4359;49.358;11.256;2023-02-21T08:18:56;6.70;99.90
8643;DHT22;4359;49.358;11.256;2023-02-21T08:21:22;6.70;99.90
8643;DHT22;4359;49.358;11.256;2023-02-21T08:23:50;6.90;99.90
8643;DHT22;4359;49.358;11.256;2023-02-21T08:26:16;7.00;99.90
8643;DHT22;4359;49.358;11.256;2023-02-21T08:28:41;7.10;99.90
8643;DHT22;4359;49.358;11.256;2023-02-21T08:31:07;7.20;99.90
8643;DHT22;4359;49.358;11.256;2023-02-21T08:33:33;7.40;99.90
8643;DHT22;4359;49.358;11.256;2023-02-21T08:35:58;7.60;99.90
8643;DHT22;4359;49.358;11.256;2023-02-21T08:38:24;7.60;99.90
8643;DHT22;4359;49.358;11.256;2023-02-21T08:40:50;7.80;99.90
8643;DHT22;4359;49.358;11.256;2023-02-21T08:43:17;7.90;99.90
8643;DHT22;4359;49.358;11.256;2023-02-21T08:45:42;8.00;99.90
8643;DHT22;4359;49.358;11.256;2023-02-21T08:48:08;8.30;99.90
8643;DHT22;4359;49.358;11.256;2023-02-21T08:50:33;8.50;99.90
8643;DHT22;4359;49.358;11.256;2023-02-21T08:52:59;8.70;99.90
8643;DHT22;4359;49.358;11.256;2023-02-21T08:55:25;9.00;99.90
8643;DHT22;4359;49.358;11.256;2023-02-21T08:57:52;9.50;99.90
8643;DHT22;4359;49.358;11.256;2023-02-21T09:00:19;9.60;99.90
8643;DHT22;4359;49.358;11.256;2023-02-21T09:02:51;9.60;99.90
8643;DHT22;4359;49.358;11.256;2023-02-21T09:05:20;9.80;99.90
8643;DHT22;4359;49.358;11.256;2023-02-21T09:07:49;9.90;99.90
8643;DHT22;4359;49.358;11.256;2023-02-21T09:10:16;10.20;99.90
8643;DHT22;4359;49.358;11.256;2023-02-21T09:12:42;10.20;99.90
8643;DHT22;4359;49.358;11.256;2023-02-21T09:15:08;10.50;99.90
8643;DHT22;4359;49.358;11.256;2023-02-21T09:17:34;10.50;99.90
8643;DHT22;4359;49.358;11.256;2023-02-21T09:20:05;11.10;99.90
8643;DHT22;4359;49.358;11.256;2023-02-21T09:22:33;11.40;99.90
8643;DHT22;4359;49.358;11.256;2023-02-21T09:24:59;11.10;99.90
8643;DHT22;4359;49.358;11.256;2023-02-21T09:27:27;10.80;99.90
8643;DHT22;4359;49.358;11.256;2023-02-21T09:30:13;10.60;99.90
8643;DHT22;4359;49.358;11.256;2023-02-21T09:32:39;10.60;99.90
8643;DHT22;4359;49.358;11.256;2023-02-21T09:35:06;10.70;99.90
8643;DHT22;4359;49.358;11.256;2023-02-21T09:37:35;10.70;99.90
8643;DHT22;4359;49.358;11.256;2023-02-21T09:40:01;11.10;99.90
8643;DHT22;4359;49.358;11.256;2023-02-21T09:42:30;11.30;99.90
8643;DHT22;4359;49.358;11.256;2023-02-21T09:44:56;11.50;99.90
8643;DHT22;4359;49.358;11.256;2023-02-21T09:47:34;11.60;99.90
8643;DHT22;4359;49.358;11.256;2023-02-21T09:50:05;11.80;99.90
8643;DHT22;4359;49.358;11.256;2023-02-21T09:52:39;12.10;99.90
8643;DHT22;4359;49.358;11.256;2023-02-21T09:55:24;12.20;99.90
8643;DHT22;4359;49.358;11.256;2023-02-21T09:57:52;12.30;99.90
8643;DHT22;4359;49.358;11.256;2023-02-21T10:00:22;12.50;99.90
8643;DHT22;4359;49.358;11.256;2023-02-21T10:02:56;12.80;99.90
8643;DHT22;4359;49.358;11.256;2023-02-21T10:05:45;13.10;99.90
8643;DHT22;4359;49.358;11.256;2023-02-21T10:11:32;13.40;99.90
8643;DHT22;4359;49.358;11.256;2023-02-21T10:14:46;12.90;99.90
8643;DHT22;4359;49.358;11.256;2023-02-21T10:17:22;12.60;99.90
8643;DHT22;4359;49.358;11.256;2023-02-21T10:19:53;12.70;99.90
8643;DHT22;4359;49.358;11.256;2023-02-21T10:22:26;12.50;99.90
8643;DHT22;4359;49.358;11.256;2023-02-21T10:24:53;12.30;99.90
8643;DHT22;4359;49.358;11.256;2023-02-21T10:27:22;12.00;99.90
8643;DHT22;4359;49.358;11.256;2023-02-21T10:32:19;11.90;99.90
8643;DHT22;4359;49.358;11.256;2023-02-21T10:34:46;12.00;99.90
8643;DHT22;4359;49.358;11.256;2023-02-21T10:37:41;12.20;99.90
8643;DHT22;4359;49.358;11.256;2023-02-21T10:42:56;12.10;99.90
8643;DHT22;4359;49.358;11.256;2023-02-21T10:48:14;12.10;99.90
8643;DHT22;4359;49.358;11.256;2023-02-21T10:53:45;12.10;99.90
8643;DHT22;4359;49.358;11.256;2023-02-21T10:58:56;11.90;99.90
8643;DHT22;4359;49.358;11.256;2023-02-21T11:03:59;11.90;99.90
8643;DHT22;4359;49.358;11.256;2023-02-21T11:06:43;12.00;99.90
8643;DHT22;4359;49.358;11.256;2023-02-21T11:17:24;12.30;99.90
8643;DHT22;4359;49.358;11.256;2023-02-21T11:19:53;12.40;99.90
8643;DHT22;4359;49.358;11.256;2023-02-21T11:25:21;12.70;99.90
8643;DHT22;4359;49.358;11.256;2023-02-21T11:28:17;12.60;99.90
8643;DHT22;4359;49.358;11.256;2023-02-21T11:33:19;13.00;99.90
8643;DHT22;4359;49.358;11.256;2023-02-21T11:35:50;13.20;99.90
8643;DHT22;4359;49.358;11.256;2023-02-21T11:38:35;13.40;99.90
8643;DHT22;4359;49.358;11.256;2023-02-21T11:41:21;13.40;99.90
8643;DHT22;4359;49.358;11.256;2023-02-21T11:43:51;13.70;99.90
8643;DHT22;4359;49.358;11.256;2023-02-21T11:46:34;14.10;99.90
8643;DHT22;4359;49.358;11.256;2023-02-21T11:51:54;14.10;99.90
8643;DHT22;4359;49.358;11.256;2023-02-21T11:54:25;13.90;99.90
8643;DHT22;4359;49.358;11.256;2023-02-21T11:57:02;14.00;99.90
8643;DHT22;4359;49.358;11.256;2023-02-21T12:11:03;15.00;99.90
8643;DHT22;4359;49.358;11.256;2023-02-21T12:27:07;15.00;99.90
8643;DHT22;4359;49.358;11.256;2023-02-21T12:44:20;16.00;99.90
8643;DHT22;4359;49.358;11.256;2023-02-21T12:46:52;15.50;99.90
8643;DHT22;4359;49.358;11.256;2023-02-21T12:52:15;15.00;99.90
8643;DHT22;4359;49.358;11.256;2023-02-21T13:00:17;16.60;99.90
8643;DHT22;4359;49.358;11.256;2023-02-21T13:05:46;15.10;99.90
8643;DHT22;4359;49.358;11.256;2023-02-21T13:08:29;15.10;99.90
8643;DHT22;4359;49.358;11.256;2023-02-21T13:11:14;15.00;99.90
8643;DHT22;4359;49.358;11.256;2023-02-21T13:13:41;15.30;99.90
8643;DHT22;4359;49.358;11.256;2023-02-21T13:16:09;15.60;99.90
8643;DHT22;4359;49.358;11.256;2023-02-21T13:18:46;16.20;99.90
8643;DHT22;4359;49.358;11.256;2023-02-21T13:32:55;17.40;99.90
8643;DHT22;4359;49.358;11.256;2023-02-21T13:37:57;16.60;99.90
8643;DHT22;4359;49.358;11.256;2023-02-21T13:40:32;16.50;99.90
8643;DHT22;4359;49.358;11.256;2023-02-21T13:43:05;16.50;99.90
8643;DHT22;4359;49.358;11.256;2023-02-21T13:45:32;16.10;99.90
8643;DHT22;4359;49.358;11.256;2023-02-21T13:55:33;17.60;99.90
8643;DHT22;4359;49.358;11.256;2023-02-21T14:03:00;17.10;99.90
8643;DHT22;4359;49.358;11.256;2023-02-21T14:10:58;16.10;99.90
8643;DHT22;4359;49.358;11.256;2023-02-21T14:13:45;15.80;99.90
8643;DHT22;4359;49.358;11.256;2023-02-21T14:16:18;15.80;99.90
8643;DHT22;4359;49.358;11.256;2023-02-21T14:21:23;15.90;99.90
8643;DHT22;4359;49.358;11.256;2023-02-21T14:29:29;16.90;99.90
8643;DHT22;4359;49.358;11.256;2023-02-21T14:39:53;17.70;99.90
8643;DHT22;4359;49.358;11.256;2023-02-21T14:47:57;16.40;99.90
8643;DHT22;4359;49.358;11.256;2023-02-21T14:50:42;16.00;99.90
8643;DHT22;4359;49.358;11.256;2023-02-21T15:01:39;14.90;99.90
8643;DHT22;4359;49.358;11.256;2023-02-21T15:07:22;14.80;99.90
8643;DHT22;4359;49.358;11.256;2023-02-21T15:12:49;14.60;99.90
8643;DHT22;4359;49.358;11.256;2023-02-21T15:15:33;14.50;99.90
8643;DHT22;4359;49.358;11.256;2023-02-21T15:23:28;14.00;99.90
8643;DHT22;4359;49.358;11.256;2023-02-21T15:25:57;14.00;99.90
8643;DHT22;4359;49.358;11.256;2023-02-21T15:28:28;13.90;99.90
8643;DHT22;4359;49.358;11.256;2023-02-21T15:31:02;13.90;99.90
8643;DHT22;4359;49.358;11.256;2023-02-21T15:33:41;14.00;99.90
8643;DHT22;4359;49.358;11.256;2023-02-21T15:36:15;14.10;99.90
8643;DHT22;4359;49.358;11.256;2023-02-21T15:41:59;13.80;99.90
8643;DHT22;4359;49.358;11.256;2023-02-21T15:46:53;13.80;99.90
8643;DHT22;4359;49.358;11.256;2023-02-21T15:49:32;13.70;99.90
8643;DHT22;4359;49.358;11.256;2023-02-21T15:52:01;13.60;99.90
8643;DHT22;4359;49.358;11.256;2023-02-21T15:54:32;13.50;99.90
8643;DHT22;4359;49.358;11.256;2023-02-21T15:59:36;13.20;99.90
8643;DHT22;4359;49.358;11.256;2023-02-21T16:04:35;13.00;99.90
8643;DHT22;4359;49.358;11.256;2023-02-21T16:07:01;12.90;99.90
8643;DHT22;4359;49.358;11.256;2023-02-21T16:09:31;12.90;99.90
8643;DHT22;4359;49.358;11.256;2023-02-21T16:12:33;12.80;99.90
8643;DHT22;4359;49.358;11.256;2023-02-21T16:15:23;12.70;99.90
8643;DHT22;4359;49.358;11.256;2023-02-21T16:18:09;12.70;99.90
8643;DHT22;4359;49.358;11.256;2023-02-21T16:20:40;12.50;99.90
8643;DHT22;4359;49.358;11.256;2023-02-21T16:26:16;12.10;99.90
8643;DHT22;4359;49.358;11.256;2023-02-21T16:28:44;12.00;99.90
8643;DHT22;4359;49.358;11.256;2023-02-21T16:31:15;11.80;99.90
8643;DHT22;4359;49.358;11.256;2023-02-21T16:33:42;11.50;99.90
8643;DHT22;4359;49.358;11.256;2023-02-21T16:36:22;11.40;99.90
8643;DHT22;4359;49.358;11.256;2023-02-21T16:38:48;11.10;99.90
8643;DHT22;4359;49.358;11.256;2023-02-21T16:41:14;10.90;99.90
8643;DHT22;4359;49.358;11.256;2023-02-21T16:43:40;10.70;99.90
8643;DHT22;4359;49.358;11.256;2023-02-21T16:46:05;10.60;99.90
8643;DHT22;4359;49.358;11.256;2023-02-21T16:48:31;10.30;99.90
8643;DHT22;4359;49.358;11.256;2023-02-21T16:51:06;10.10;99.90
8643;DHT22;4359;49.358;11.256;2023-02-21T16:53:32;9.90;99.90
8643;DHT22;4359;49.358;11.256;2023-02-21T16:55:59;9.60;99.90
8643;DHT22;4359;49.358;11.256;2023-02-21T16:58:27;9.50;99.90
8643;DHT22;4359;49.358;11.256;2023-02-21T17:00:59;9.30;99.90
8643;DHT22;4359;49.358;11.256;2023-02-21T17:03:26;9.10;99.90
8643;DHT22;4359;49.358;11.256;2023-02-21T17:05:53;8.90;99.90
8643;DHT22;4359;49.358;11.256;2023-02-21T17:08:19;8.70;99.90
8643;DHT22;4359;49.358;11.256;2023-02-21T17:10:45;8.60;99.90
8643;DHT22;4359;49.358;11.256;2023-02-21T17:13:11;8.50;99.90
8643;DHT22;4359;49.358;11.256;2023-02-21T17:15:37;8.60;99.90
8643;DHT22;4359;49.358;11.256;2023-02-21T17:18:03;8.60;99.90
8643;DHT22;4359;49.358;11.256;2023-02-21T17:20:29;8.60;99.90
8643;DHT22;4359;49.358;11.256;2023-02-21T17:22:55;8.50;99.90
8643;DHT22;4359;49.358;11.256;2023-02-21T17:25:23;8.50;99.90
8643;DHT22;4359;49.358;11.256;2023-02-21T17:27:50;8.40;99.90
8643;DHT22;4359;49.358;11.256;2023-02-21T17:30:17;8.40;99.90
8643;DHT22;4359;49.358;11.256;2023-02-21T17:32:44;8.40;99.90
8643;DHT22;4359;49.358;11.256;2023-02-21T17:35:12;8.30;99.90
8643;DHT22;4359;49.358;11.256;2023-02-21T17:37:40;8.30;99.90
8643;DHT22;4359;49.358;11.256;2023-02-21T17:40:07;8.20;99.90
8643;DHT22;4359;49.358;11.256;2023-02-21T17:42:33;8.10;99.90
8643;DHT22;4359;49.358;11.256;2023-02-21T17:45:02;7.80;99.90
8643;DHT22;4359;49.358;11.256;2023-02-21T17:47:28;7.60;99.90
8643;DHT22;4359;49.358;11.256;2023-02-21T17:49:54;7.40;99.90
8643;DHT22;4359;49.358;11.256;2023-02-21T17:52:22;7.30;99.90
8643;DHT22;4359;49.358;11.256;2023-02-21T17:54:48;7.10;99.90
8643;DHT22;4359;49.358;11.256;2023-02-21T17:57:14;6.90;99.90
8643;DHT22;4359;49.358;11.256;2023-02-21T17:59:41;6.70;99.90
8643;DHT22;4359;49.358;11.256;2023-02-21T18:02:08;6.60;99.90
8643;DHT22;4359;49.358;11.256;2023-02-21T18:04:34;6.60;99.90
8643;DHT22;4359;49.358;11.256;2023-02-21T18:07:01;6.60;99.90
8643;DHT22;4359;49.358;11.256;2023-02-21T18:09:27;6.60;99.90
8643;DHT22;4359;49.358;11.256;2023-02-21T18:11:57;6.60;99.90
8643;DHT22;4359;49.358;11.256;2023-02-21T18:14:26;6.50;99.90
8643;DHT22;4359;49.358;11.256;2023-02-21T18:17:12;6.30;99.90
8643;DHT22;4359;49.358;11.256;2023-02-21T18:19:40;6.20;99.90
8643;DHT22;4359;49.358;11.256;2023-02-21T18:22:06;6.10;99.90
8643;DHT22;4359;49.358;11.256;2023-02-21T18:24:33;6.10;99.90
8643;DHT22;4359;49.358;11.256;2023-02-21T18:26:59;6.00;99.90
8643;DHT22;4359;49.358;11.256;2023-02-21T18:29:25;5.90;99.90
8643;DHT22;4359;49.358;11.256;2023-02-21T18:31:54;5.90;99.90
8643;DHT22;4359;49.358;11.256;2023-02-21T18:34:20;5.80;99.90
8643;DHT22;4359;49.358;11.256;2023-02-21T18:36:47;5.80;99.90
8643;DHT22;4359;49.358;11.256;2023-02-21T18:39:15;5.90;99.90
8643;DHT22;4359;49.358;11.256;2023-02-21T18:41:59;5.80;99.90
8643;DHT22;4359;49.358;11.256;2023-02-21T18:44:26;5.80;99.90
8643;DHT22;4359;49.358;11.256;2023-02-21T18:46:55;5.80;99.90
8643;DHT22;4359;49.358;11.256;2023-02-21T18:49:22;5.80;99.90
8643;DHT22;4359;49.358;11.256;2023-02-21T18:51:47;5.70;99.90
8643;DHT22;4359;49.358;11.256;2023-02-21T18:54:13;5.70;99.90
8643;DHT22;4359;49.358;11.256;2023-02-21T18:56:44;5.50;99.90
8643;DHT22;4359;49.358;11.256;2023-02-21T18:59:11;5.50;99.90
8643;DHT22;4359;49.358;11.256;2023-02-21T19:01:36;5.40;99.90
8643;DHT22;4359;49.358;11.256;2023-02-21T19:04:02;5.40;99.90
8643;DHT22;4359;49.358;11.256;2023-02-21T19:06:28;5.10;99.90
8643;DHT22;4359;49.358;11.256;2023-02-21T19:08:53;5.10;99.90
8643;DHT22;4359;49.358;11.256;2023-02-21T19:11:19;5.00;99.90
8643;DHT22;4359;49.358;11.256;2023-02-21T19:13:45;4.90;99.90
8643;DHT22;4359;49.358;11.256;2023-02-21T19:16:15;4.80;99.90
8643;DHT22;4359;49.358;11.256;2023-02-21T19:18:41;4.80;99.90
8643;DHT22;4359;49.358;11.256;2023-02-21T19:21:06;4.70;99.90
8643;DHT22;4359;49.358;11.256;2023-02-21T19:23:40;4.70;99.90
8643;DHT22;4359;49.358;11.256;2023-02-21T19:26:06;4.70;99.90
8643;DHT22;4359;49.358;11.256;2023-02-21T19:28:32;4.70;99.90
8643;DHT22;4359;49.358;11.256;2023-02-21T19:30:58;5.00;99.90
8643;DHT22;4359;49.358;11.256;2023-02-21T19:33:24;5.00;99.90
8643;DHT22;4359;49.358;11.256;2023-02-21T19:35:50;4.90;99.90
8643;DHT22;4359;49.358;11.256;2023-02-21T19:38:16;4.80;99.90
8643;DHT22;4359;49.358;11.256;2023-02-21T19:40:41;4.80;99.90
8643;DHT22;4359;49.358;11.256;2023-02-21T19:43:07;4.80;99.90